createdAt,value
2024-05-09T00:02:34.703Z,8.15
2024-05-09T00:05:37.575Z,8.10
2024-05-09T00:08:40.556Z,8.05
2024-05-09T00:11:43.347Z,8.01
2024-05-09T00:14:46.041Z,7.98
2024-05-09T00:17:48.854Z,7.93
2024-05-09T00:20:51.921Z,7.94
2024-05-09T00:23:54.849Z,7.92
2024-05-09T00:26:57.949Z,7.88
2024-05-09T00:30:00.676Z,7.85
2024-05-09T00:33:05.169Z,7.82
2024-05-09T00:36:08.929Z,7.78
2024-05-09T00:39:11.584Z,7.74
2024-05-09T00:42:14.206Z,7.72
2024-05-09T00:45:17.013Z,7.68
2024-05-09T00:48:21.536Z,7.62
2024-05-09T00:51:24.557Z,7.58
2024-05-09T00:54:27.394Z,7.59
2024-05-09T00:57:30.308Z,7.60
2024-05-09T01:00:38.983Z,7.58
2024-05-09T01:03:44.797Z,7.55
2024-05-09T01:06:47.898Z,7.52
2024-05-09T01:09:50.619Z,7.51
2024-05-09T01:12:53.309Z,7.51
2024-05-09T01:15:57.873Z,7.50
2024-05-09T01:19:01.471Z,7.46
2024-05-09T01:22:07.698Z,7.43
2024-05-09T01:25:10.359Z,7.38
2024-05-09T01:28:13.345Z,7.37
2024-05-09T01:31:16.089Z,7.35
2024-05-09T01:34:18.780Z,7.32
2024-05-09T01:37:21.402Z,7.26
2024-05-09T01:40:33.449Z,7.11
2024-05-09T01:43:40.493Z,7.06
2024-05-09T01:46:43.262Z,7.04
2024-05-09T01:49:46.070Z,7.01
2024-05-09T01:52:48.946Z,6.97
2024-05-09T01:55:51.780Z,6.93
2024-05-09T01:58:54.477Z,6.83
2024-05-09T02:01:57.943Z,6.78
2024-05-09T02:05:00.930Z,6.75
2024-05-09T02:08:04.689Z,6.75
2024-05-09T02:11:08.653Z,6.76
2024-05-09T02:14:11.641Z,6.74
2024-05-09T02:17:14.454Z,6.74
2024-05-09T02:20:26.731Z,6.73
2024-05-09T02:23:33.101Z,6.68
2024-05-09T02:26:35.935Z,6.64
2024-05-09T02:29:38.651Z,6.63
2024-05-09T02:32:41.626Z,6.62
2024-05-09T02:35:44.684Z,6.60
2024-05-09T02:38:47.945Z,6.55
2024-05-09T02:41:50.535Z,6.57
2024-05-09T02:44:53.161Z,6.58
2024-05-09T02:47:56.006Z,6.55
2024-05-09T02:51:01.178Z,6.48
2024-05-09T02:54:03.859Z,6.38
2024-05-09T02:57:06.588Z,6.32
2024-05-09T03:00:15.224Z,6.27
2024-05-09T03:03:21.996Z,6.19
2024-05-09T03:06:25.121Z,6.08
2024-05-09T03:09:27.822Z,5.99
2024-05-09T03:12:30.608Z,6.00
2024-05-09T03:15:33.522Z,6.05
2024-05-09T03:18:36.218Z,6.12
2024-05-09T03:21:42.341Z,6.26
2024-05-09T03:24:45.181Z,6.47
2024-05-09T03:27:48.167Z,6.71
2024-05-09T03:30:50.796Z,7.00
2024-05-09T03:33:53.561Z,7.27
2024-05-09T03:36:56.467Z,7.59
2024-05-09T03:39:59.334Z,7.88
2024-05-09T03:43:02.015Z,8.09
2024-05-09T03:46:04.748Z,8.33
2024-05-09T03:49:07.907Z,8.58
2024-05-09T03:52:11.397Z,8.85
2024-05-09T03:55:14.131Z,9.13
2024-05-09T03:58:16.781Z,9.33
2024-05-09T04:01:19.448Z,9.52
2024-05-09T04:04:22.244Z,9.73
2024-05-09T04:07:24.957Z,9.95
2024-05-09T04:10:32.831Z,10.16
2024-05-09T04:13:37.164Z,10.39
2024-05-09T04:16:39.815Z,10.61
2024-05-09T04:19:42.391Z,10.84
2024-05-09T04:22:45.182Z,11.09
2024-05-09T04:25:47.976Z,11.30
2024-05-09T04:28:50.706Z,11.46
2024-05-09T04:31:53.556Z,11.69
2024-05-09T04:34:56.375Z,11.91
2024-05-09T04:37:59.157Z,12.11
2024-05-09T04:41:02.012Z,12.21
2024-05-09T04:44:04.880Z,12.35
2024-05-09T04:47:07.661Z,12.49
2024-05-09T04:50:14.516Z,12.57
2024-05-09T04:53:17.827Z,12.73
2024-05-09T04:56:20.717Z,12.88
2024-05-09T04:59:23.428Z,13.04
2024-05-09T05:02:26.292Z,13.23
2024-05-09T05:05:29.127Z,13.43
2024-05-09T05:08:32.118Z,13.54
2024-05-09T05:11:36.141Z,13.67
2024-05-09T05:14:38.966Z,13.89
2024-05-09T05:17:41.839Z,13.98
2024-05-09T05:20:44.771Z,14.08
2024-05-09T05:23:47.674Z,14.27
2024-05-09T05:26:50.265Z,14.43
2024-05-09T05:29:52.846Z,14.56
2024-05-09T05:32:56.028Z,14.74
2024-05-09T05:35:58.884Z,14.94
2024-05-09T05:39:01.627Z,15.02
2024-05-09T05:42:04.421Z,15.03
2024-05-09T05:45:09.808Z,15.19
2024-05-09T05:48:13.545Z,15.31
2024-05-09T05:51:16.581Z,15.43
2024-05-09T05:54:19.234Z,15.59
2024-05-09T05:57:21.909Z,15.84
2024-05-09T06:00:30.103Z,16.13
2024-05-09T06:03:40.565Z,16.42
2024-05-09T06:06:43.416Z,16.65
2024-05-09T06:09:47.490Z,16.77
2024-05-09T06:12:50.923Z,16.93
2024-05-09T06:15:53.576Z,17.08
2024-05-09T06:18:56.390Z,17.26
2024-05-09T06:21:59.270Z,17.47
2024-05-09T06:25:01.887Z,17.72
2024-05-09T06:28:05.199Z,17.97
2024-05-09T06:31:07.960Z,18.23
2024-05-09T06:34:10.836Z,18.34
2024-05-09T06:37:13.614Z,18.51
2024-05-09T06:40:21.404Z,18.72
2024-05-09T06:43:28.254Z,18.98
2024-05-09T06:46:30.897Z,19.21
2024-05-09T06:49:33.720Z,19.38
2024-05-09T06:52:36.439Z,19.42
2024-05-09T06:55:39.181Z,19.63
2024-05-09T06:58:41.914Z,19.75
2024-05-09T07:01:44.861Z,19.74
2024-05-09T07:04:47.684Z,19.76
2024-05-09T07:07:50.435Z,19.92
2024-05-09T07:10:53.366Z,20.03
2024-05-09T07:13:56.322Z,20.17
2024-05-09T07:16:59.158Z,20.25
2024-05-09T07:20:01.915Z,20.19
2024-05-09T07:23:04.938Z,20.04
2024-05-09T07:26:07.785Z,20.08
2024-05-09T07:29:10.602Z,20.13
2024-05-09T07:32:13.436Z,20.00
2024-05-09T07:35:16.442Z,19.97
2024-05-09T07:38:19.259Z,19.75
2024-05-09T07:41:22.354Z,19.80
2024-05-09T07:44:25.100Z,19.83
2024-05-09T07:52:23.820Z,19.85
2024-05-09T07:54:00.630Z,19.94
2024-05-09T07:57:04.493Z,19.77
2024-05-09T08:00:08.270Z,19.93
2024-05-09T08:03:14.450Z,20.15
2024-05-09T08:06:17.223Z,20.37
2024-05-09T08:09:21.386Z,20.36
2024-05-09T08:12:24.524Z,20.18
2024-05-09T08:15:27.333Z,20.04
2024-05-09T08:18:30.293Z,20.19
2024-05-09T08:21:33.162Z,20.13
2024-05-09T08:24:35.964Z,20.05
2024-05-09T08:27:39.593Z,19.86
2024-05-09T08:30:42.796Z,19.58
2024-05-09T08:33:49.060Z,19.53
2024-05-09T08:36:51.854Z,19.73
2024-05-09T08:39:54.823Z,19.63
2024-05-09T08:42:58.089Z,19.51
2024-05-09T08:46:02.083Z,19.56
2024-05-09T08:49:05.153Z,19.79
2024-05-09T08:52:08.240Z,20.12
2024-05-09T08:55:11.042Z,20.04
2024-05-09T08:58:16.086Z,19.80
2024-05-09T09:01:19.604Z,19.87
2024-05-09T09:04:23.434Z,20.12
2024-05-09T09:07:26.329Z,20.26
2024-05-09T09:10:32.181Z,19.97
2024-05-09T09:13:35.839Z,19.72
2024-05-09T09:16:38.519Z,19.79
2024-05-09T09:19:41.749Z,20.06
2024-05-09T09:22:44.232Z,20.24
2024-05-09T09:25:47.312Z,20.38
2024-05-09T09:28:50.032Z,20.32
2024-05-09T09:32:03.849Z,20.53
2024-05-09T09:35:07.016Z,20.55
2024-05-09T09:38:11.188Z,20.49
2024-05-09T09:41:16.810Z,20.31
2024-05-09T09:44:19.447Z,20.41
2024-05-09T09:47:22.977Z,20.61
2024-05-09T09:50:33.329Z,20.87
2024-05-09T09:53:38.267Z,20.99
2024-05-09T09:56:41.496Z,21.18
2024-05-09T09:59:46.653Z,21.35
2024-05-09T10:02:49.271Z,21.31
2024-05-09T10:05:53.128Z,21.25
2024-05-09T10:08:56.490Z,21.07
2024-05-09T10:12:09.511Z,20.84
2024-05-09T10:15:12.349Z,20.75
2024-05-09T10:18:15.468Z,20.99
2024-05-09T10:21:19.340Z,21.17
2024-05-09T10:24:22.030Z,21.38
2024-05-09T10:27:28.748Z,21.55
2024-05-09T10:30:35.924Z,21.85
2024-05-09T10:33:48.361Z,22.00
2024-05-09T10:36:55.499Z,21.89
2024-05-09T10:39:58.589Z,21.60
2024-05-09T10:43:04.651Z,21.40
2024-05-09T10:46:09.982Z,21.17
2024-05-09T10:49:16.651Z,21.07
2024-05-09T10:52:20.136Z,20.91
2024-05-09T10:55:23.145Z,20.70
2024-05-09T10:58:26.278Z,20.73
2024-05-09T11:01:29.135Z,20.94
2024-05-09T11:04:35.869Z,21.07
2024-05-09T11:07:38.861Z,20.82
2024-05-09T11:10:42.182Z,20.59
2024-05-09T11:13:45.264Z,20.50
2024-05-09T11:16:57.812Z,20.51
2024-05-09T11:20:00.680Z,20.57
2024-05-09T11:23:07.142Z,20.68
2024-05-09T11:26:10.563Z,20.72
2024-05-09T11:29:15.747Z,20.80
2024-05-09T11:32:28.672Z,20.79
2024-05-09T11:35:31.495Z,20.85
2024-05-09T11:38:34.296Z,20.91
2024-05-09T11:41:37.558Z,20.91
2024-05-09T11:44:40.214Z,20.93
2024-05-09T11:47:43.092Z,20.94
2024-05-09T11:50:45.769Z,20.75
2024-05-09T11:53:48.410Z,20.76
2024-05-09T11:56:51.680Z,20.78
2024-05-09T11:59:54.440Z,20.80
2024-05-09T12:03:00.271Z,20.72
2024-05-09T12:06:03.785Z,20.77
2024-05-09T12:09:06.528Z,20.76
2024-05-09T12:12:09.294Z,20.64
2024-05-09T12:15:12.110Z,20.38
2024-05-09T12:18:14.756Z,20.04
2024-05-09T12:21:17.509Z,19.85
2024-05-09T12:24:20.376Z,19.93
2024-05-09T12:27:23.280Z,19.99
2024-05-09T12:30:35.055Z,19.95
2024-05-09T12:33:41.304Z,20.08
2024-05-09T12:36:44.176Z,20.19
2024-05-09T12:39:46.866Z,20.29
2024-05-09T12:42:49.598Z,20.37
2024-05-09T12:45:52.295Z,20.31
2024-05-09T12:48:55.160Z,20.26
2024-05-09T12:51:58.135Z,20.23
2024-05-09T12:55:00.872Z,20.26
2024-05-09T12:58:03.944Z,20.24
2024-05-09T13:01:07.023Z,20.35
2024-05-09T13:04:09.989Z,20.45
2024-05-09T13:07:12.788Z,20.46
2024-05-09T13:10:23.071Z,20.46
2024-05-09T13:13:31.888Z,20.44
2024-05-09T13:16:34.582Z,20.28
2024-05-09T13:19:37.351Z,20.13
2024-05-09T13:22:40.447Z,20.16
2024-05-09T13:25:43.225Z,20.23
2024-05-09T13:28:45.906Z,20.31
2024-05-09T13:31:48.583Z,20.40
2024-05-09T13:34:51.199Z,20.44
2024-05-09T13:37:53.928Z,20.51
2024-05-09T13:40:56.440Z,20.35
2024-05-09T13:43:59.193Z,20.11
2024-05-09T13:47:01.912Z,19.92
2024-05-09T13:50:06.896Z,19.73
2024-05-09T13:53:11.712Z,19.74
2024-05-09T13:56:14.626Z,19.70
2024-05-09T13:59:17.243Z,19.68
2024-05-09T14:02:20.224Z,19.71
2024-05-09T14:05:23.172Z,19.74
2024-05-09T14:08:26.329Z,19.85
2024-05-09T14:11:29.019Z,20.08
2024-05-09T14:14:31.768Z,20.09
2024-05-09T14:17:34.461Z,20.04
2024-05-09T14:20:38.029Z,19.93
2024-05-09T14:23:40.675Z,19.87
2024-05-09T14:26:44.107Z,19.90
2024-05-09T14:29:46.746Z,19.88
2024-05-09T14:32:49.415Z,19.84
2024-05-09T14:35:52.948Z,19.62
2024-05-09T14:38:55.867Z,19.52
2024-05-09T14:41:58.538Z,19.45
2024-05-09T14:45:02.037Z,19.38
2024-05-09T14:48:05.511Z,19.24
2024-05-09T14:51:08.244Z,18.93
2024-05-09T14:54:10.958Z,18.74
2024-05-09T14:57:13.782Z,18.51
2024-05-09T15:00:24.804Z,18.39
2024-05-09T15:03:31.259Z,18.36
2024-05-09T15:06:34.126Z,18.44
2024-05-09T15:09:37.070Z,18.46
2024-05-09T15:12:39.748Z,18.48
2024-05-09T15:15:42.640Z,18.51
2024-05-09T15:18:45.508Z,18.52
2024-05-09T15:21:48.399Z,18.52
2024-05-09T15:24:51.239Z,18.47
2024-05-09T15:27:54.792Z,18.45
2024-05-09T15:30:57.666Z,18.39
2024-05-09T15:34:00.585Z,18.34
2024-05-09T15:37:03.912Z,18.33
2024-05-09T15:40:12.300Z,18.34
2024-05-09T15:43:21.458Z,18.38
2024-05-09T15:46:24.393Z,18.32
2024-05-09T15:49:27.240Z,18.26
2024-05-09T15:52:30.042Z,18.20
2024-05-09T15:55:33.639Z,18.17
2024-05-09T15:58:36.802Z,18.15
2024-05-09T16:01:39.544Z,18.13
2024-05-09T16:04:42.407Z,18.11
2024-05-09T16:07:45.504Z,18.05
2024-05-09T16:10:48.487Z,17.91
2024-05-09T16:13:51.428Z,17.78
2024-05-09T16:16:54.381Z,17.73
2024-05-09T16:19:57.014Z,17.71
2024-05-09T16:22:59.696Z,17.65
2024-05-09T16:26:02.259Z,17.54
2024-05-09T16:29:04.876Z,17.39
2024-05-09T16:32:07.695Z,17.27
2024-05-09T16:35:10.425Z,17.21
2024-05-09T16:38:13.364Z,17.13
2024-05-09T16:41:16.216Z,17.05
2024-05-09T16:44:18.923Z,17.02
2024-05-09T16:47:21.748Z,17.01
2024-05-09T16:50:29.489Z,17.01
2024-05-09T16:53:35.714Z,17.02
2024-05-09T16:56:39.024Z,17.01
2024-05-09T16:59:43.129Z,17.00
2024-05-09T17:02:45.961Z,16.99
2024-05-09T17:05:50.387Z,16.96
2024-05-09T17:08:55.464Z,16.90
2024-05-09T17:11:58.659Z,16.83
2024-05-09T17:15:01.514Z,16.77
2024-05-09T17:18:04.970Z,16.68
2024-05-09T17:21:07.799Z,16.57
2024-05-09T17:24:10.437Z,16.45
2024-05-09T17:27:13.039Z,16.34
2024-05-09T17:30:24.679Z,16.25
2024-05-09T17:33:34.695Z,16.18
2024-05-09T17:36:37.824Z,16.14
2024-05-09T17:39:40.658Z,16.04
2024-05-09T17:42:43.638Z,15.94
2024-05-09T17:45:46.754Z,15.79
2024-05-09T17:48:49.783Z,15.63
2024-05-09T17:51:52.997Z,15.52
2024-05-09T17:54:55.801Z,15.38
2024-05-09T17:57:58.559Z,15.23
2024-05-09T18:01:01.602Z,15.08
2024-05-09T18:04:05.177Z,14.91
2024-05-09T18:07:08.063Z,14.80
2024-05-09T18:10:19.287Z,14.69
2024-05-09T18:13:28.832Z,14.57
2024-05-09T18:16:32.434Z,14.45
2024-05-09T18:19:35.377Z,14.34
2024-05-09T18:22:38.375Z,14.22
2024-05-09T18:25:41.253Z,14.08
2024-05-09T18:28:44.070Z,13.97
2024-05-09T18:31:47.249Z,13.80
2024-05-09T18:34:50.270Z,13.63
2024-05-09T18:37:53.393Z,13.46
2024-05-09T18:40:56.256Z,13.32
2024-05-09T18:43:59.188Z,13.26
2024-05-09T18:47:02.158Z,13.16
2024-05-09T18:50:09.175Z,13.04
2024-05-09T18:53:17.553Z,12.91
2024-05-09T18:56:20.926Z,12.76
2024-05-09T18:59:23.615Z,12.64
2024-05-09T19:02:26.422Z,12.60
2024-05-09T19:05:29.378Z,12.55
2024-05-09T19:08:32.332Z,12.50
2024-05-09T19:11:35.547Z,12.39
2024-05-09T19:14:38.233Z,12.31
2024-05-09T19:17:41.203Z,12.27
2024-05-09T19:20:44.505Z,12.22
2024-05-09T19:23:52.130Z,12.14
2024-05-09T19:26:56.270Z,12.03
2024-05-09T19:29:59.015Z,11.95
2024-05-09T19:33:02.150Z,11.88
2024-05-09T19:36:05.796Z,11.84
2024-05-09T19:39:08.819Z,11.79
2024-05-09T19:42:11.790Z,11.72
2024-05-09T19:45:14.830Z,11.66
2024-05-09T19:48:17.828Z,11.64
2024-05-09T19:51:20.890Z,11.61
2024-05-09T19:54:23.556Z,11.53
2024-05-09T19:57:26.640Z,11.47
2024-05-09T20:00:35.255Z,11.42
2024-05-09T20:03:39.824Z,11.36
2024-05-09T20:06:42.709Z,11.35
2024-05-09T20:09:45.614Z,11.33
2024-05-09T20:12:48.493Z,11.28
2024-05-09T20:15:51.255Z,11.19
2024-05-09T20:18:54.189Z,11.11
2024-05-09T20:21:57.130Z,11.08
2024-05-09T20:25:01.263Z,11.05
2024-05-09T20:28:04.618Z,11.01
2024-05-09T20:31:09.021Z,11.01
2024-05-09T20:34:11.773Z,10.99
2024-05-09T20:37:14.665Z,10.99
2024-05-09T20:40:25.405Z,10.98
2024-05-09T20:43:34.108Z,10.98
2024-05-09T20:46:36.749Z,10.97
2024-05-09T20:49:39.490Z,10.94
2024-05-09T20:52:42.364Z,10.93
2024-05-09T20:55:45.485Z,10.91
2024-05-09T20:58:49.020Z,10.90
2024-05-09T21:01:51.753Z,10.80
2024-05-09T21:04:54.546Z,10.66
2024-05-09T21:07:57.382Z,10.54
2024-05-09T21:11:00.143Z,10.45
2024-05-09T21:14:02.761Z,10.35
2024-05-09T21:17:05.593Z,10.23
2024-05-09T21:20:14.412Z,10.13
2024-05-09T21:23:20.440Z,10.01
2024-05-09T21:26:24.710Z,9.93
2024-05-09T21:29:27.336Z,9.90
2024-05-09T21:32:30.064Z,9.85
2024-05-09T21:35:32.881Z,9.80
2024-05-09T21:38:35.487Z,9.73
2024-05-09T21:41:38.174Z,9.66
2024-05-09T21:44:40.790Z,9.66
2024-05-09T21:47:43.632Z,9.66
2024-05-09T21:50:46.451Z,9.62
2024-05-09T21:53:49.283Z,9.55
2024-05-09T21:56:52.248Z,9.49
2024-05-09T21:59:54.863Z,9.42
2024-05-09T22:02:57.752Z,9.36
2024-05-09T22:06:00.415Z,9.32
2024-05-09T22:09:05.015Z,9.29
2024-05-09T22:12:07.728Z,9.25
2024-05-09T22:15:10.511Z,9.22
2024-05-09T22:18:13.467Z,9.15
2024-05-09T22:21:16.216Z,9.09
2024-05-09T22:24:19.299Z,9.09
2024-05-09T22:27:21.896Z,9.07
2024-05-09T22:30:33.144Z,9.03
2024-05-09T22:33:39.861Z,8.99
2024-05-09T22:36:42.998Z,8.96
2024-05-09T22:39:45.627Z,8.94
2024-05-09T22:42:48.427Z,8.90
2024-05-09T22:45:51.486Z,8.85
2024-05-09T22:48:54.416Z,8.81
2024-05-09T22:51:57.153Z,8.78
2024-05-09T22:54:59.797Z,8.73
2024-05-09T22:58:02.842Z,8.67
2024-05-09T23:01:05.660Z,8.61
2024-05-09T23:04:08.661Z,8.57
2024-05-09T23:07:11.598Z,8.56
2024-05-09T23:10:21.259Z,8.58
2024-05-09T23:13:30.549Z,8.58
2024-05-09T23:16:33.675Z,8.59
2024-05-09T23:19:36.542Z,8.59
2024-05-09T23:22:39.454Z,8.57
2024-05-09T23:25:42.313Z,8.54
2024-05-09T23:28:45.126Z,8.51
2024-05-09T23:31:47.887Z,8.50
2024-05-09T23:34:50.567Z,8.43
2024-05-09T23:37:53.358Z,8.35
2024-05-09T23:40:56.161Z,8.24
2024-05-09T23:43:58.840Z,8.16
2024-05-09T23:47:01.496Z,8.13
2024-05-09T23:50:08.793Z,8.10
2024-05-09T23:53:14.148Z,8.06
2024-05-09T23:56:17.177Z,8.04
2024-05-09T23:59:19.809Z,8.03
